createdAt,value
2023-07-07T00:02:12.233Z,15.20
2023-07-07T00:04:40.562Z,15.20
2023-07-07T00:07:08.680Z,15.20
2023-07-07T00:09:37.945Z,15.20
2023-07-07T00:12:06.675Z,15.20
2023-07-07T00:14:34.571Z,15.10
2023-07-07T00:17:05.178Z,15.10
2023-07-07T00:19:40.541Z,15.10
2023-07-07T00:22:09.244Z,15.10
2023-07-07T00:24:41.823Z,15.10
2023-07-07T00:27:12.438Z,15.10
2023-07-07T00:29:40.449Z,15.00
2023-07-07T00:32:11.741Z,15.00
2023-07-07T00:34:39.581Z,15.00
2023-07-07T00:37:11.671Z,15.00
2023-07-07T00:39:43.529Z,14.90
2023-07-07T00:42:12.413Z,14.90
2023-07-07T00:45:16.119Z,14.90
2023-07-07T00:47:50.521Z,14.90
2023-07-07T00:50:21.334Z,14.90
2023-07-07T00:52:49.827Z,15.00
2023-07-07T00:55:25.140Z,14.90
2023-07-07T00:57:53.109Z,15.00
2023-07-07T01:00:21.622Z,15.00
2023-07-07T01:02:55.884Z,15.00
2023-07-07T01:05:26.230Z,15.10
2023-07-07T01:07:54.434Z,15.10
2023-07-07T01:10:24.366Z,15.10
2023-07-07T01:12:53.244Z,15.10
2023-07-07T01:15:27.547Z,15.10
2023-07-07T01:18:10.931Z,15.10
2023-07-07T01:20:45.813Z,15.10
2023-07-07T01:23:58.800Z,15.00
2023-07-07T01:26:52.453Z,15.00
2023-07-07T01:29:39.705Z,15.10
2023-07-07T01:32:14.303Z,15.10
2023-07-07T01:34:42.708Z,15.10
2023-07-07T01:37:12.294Z,15.10
2023-07-07T01:39:40.963Z,15.10
2023-07-07T01:42:16.105Z,15.10
2023-07-07T01:44:53.070Z,15.10
2023-07-07T01:47:29.472Z,15.10
2023-07-07T01:50:01.144Z,15.10
2023-07-07T01:52:35.630Z,15.10
2023-07-07T01:55:08.235Z,15.20
2023-07-07T01:57:38.177Z,15.10
2023-07-07T02:00:10.618Z,15.10
2023-07-07T02:02:40.055Z,15.10
2023-07-07T02:05:10.919Z,15.00
2023-07-07T02:07:40.213Z,15.00
2023-07-07T02:10:13.889Z,15.00
2023-07-07T02:12:42.028Z,14.90
2023-07-07T02:15:10.800Z,14.90
2023-07-07T02:17:40.762Z,14.90
2023-07-07T02:20:11.105Z,14.90
2023-07-07T02:22:40.497Z,14.90
2023-07-07T02:25:09.727Z,14.90
2023-07-07T02:27:39.268Z,14.90
2023-07-07T02:30:08.495Z,14.90
2023-07-07T02:32:36.673Z,14.90
2023-07-07T02:35:07.703Z,14.80
2023-07-07T02:37:36.797Z,14.80
2023-07-07T02:40:06.746Z,14.90
2023-07-07T02:42:34.788Z,14.80
2023-07-07T02:45:02.698Z,14.80
2023-07-07T02:47:31.521Z,14.80
2023-07-07T02:49:59.574Z,14.90
2023-07-07T02:52:33.121Z,14.90
2023-07-07T02:55:02.157Z,14.80
2023-07-07T02:57:31.387Z,14.90
2023-07-07T02:59:59.480Z,14.80
2023-07-07T03:02:28.037Z,14.80
2023-07-07T03:04:55.945Z,14.80
2023-07-07T03:07:24.534Z,14.80
2023-07-07T03:09:54.220Z,14.80
2023-07-07T03:12:22.307Z,14.80
2023-07-07T03:14:54.358Z,14.80
2023-07-07T03:17:23.006Z,14.70
2023-07-07T03:19:51.238Z,14.70
2023-07-07T03:22:19.691Z,14.70
2023-07-07T03:24:48.138Z,14.70
2023-07-07T03:27:18.108Z,14.60
2023-07-07T03:29:47.554Z,14.70
2023-07-07T03:32:16.526Z,14.70
2023-07-07T03:34:45.406Z,14.70
2023-07-07T03:37:13.485Z,14.70
2023-07-07T03:39:41.429Z,14.70
2023-07-07T03:42:10.466Z,14.80
2023-07-07T03:44:42.257Z,14.80
2023-07-07T03:47:11.265Z,14.80
2023-07-07T03:49:39.081Z,14.70
2023-07-07T03:52:07.999Z,14.80
2023-07-07T03:54:35.876Z,14.80
2023-07-07T03:57:03.665Z,14.90
2023-07-07T03:59:31.439Z,15.00
2023-07-07T04:02:00.733Z,15.00
2023-07-07T04:04:28.790Z,15.00
2023-07-07T04:06:58.176Z,15.00
2023-07-07T04:09:26.244Z,15.00
2023-07-07T04:11:54.144Z,15.00
2023-07-07T04:14:21.923Z,14.90
2023-07-07T04:16:49.815Z,14.90
2023-07-07T04:19:19.098Z,14.90
2023-07-07T04:21:46.930Z,14.90
2023-07-07T04:24:14.772Z,14.90
2023-07-07T04:26:42.605Z,14.90
2023-07-07T04:29:10.579Z,14.90
2023-07-07T04:31:38.557Z,14.90
2023-07-07T04:34:07.149Z,15.00
2023-07-07T04:36:36.315Z,15.00
2023-07-07T04:39:04.823Z,15.10
2023-07-07T04:41:33.446Z,15.30
2023-07-07T04:44:02.528Z,15.40
2023-07-07T04:46:32.211Z,15.60
2023-07-07T04:49:00.478Z,15.70
2023-07-07T04:51:28.316Z,15.80
2023-07-07T04:53:57.448Z,15.90
2023-07-07T04:56:25.465Z,15.90
2023-07-07T04:58:54.723Z,15.90
2023-07-07T05:01:25.242Z,15.90
2023-07-07T05:03:56.335Z,15.90
2023-07-07T05:06:25.979Z,16.00
2023-07-07T05:08:54.029Z,16.00
2023-07-07T05:11:25.273Z,16.00
2023-07-07T05:13:54.044Z,16.00
2023-07-07T05:16:23.716Z,16.10
2023-07-07T05:18:51.945Z,16.10
2023-07-07T05:21:22.988Z,16.10
2023-07-07T05:23:53.048Z,16.20
2023-07-07T05:26:21.214Z,16.20
2023-07-07T05:28:52.693Z,16.30
2023-07-07T05:31:21.104Z,16.40
2023-07-07T05:33:49.045Z,16.50
2023-07-07T05:36:17.035Z,16.50
2023-07-07T05:38:44.897Z,16.60
2023-07-07T05:41:13.044Z,16.70
2023-07-07T05:43:40.892Z,16.80
2023-07-07T05:46:14.242Z,16.90
2023-07-07T05:48:42.644Z,16.90
2023-07-07T05:51:19.307Z,17.00
2023-07-07T05:53:48.616Z,17.00
2023-07-07T05:56:21.364Z,17.10
2023-07-07T05:58:49.433Z,17.10
2023-07-07T06:01:23.919Z,17.20
2023-07-07T06:03:54.621Z,17.30
2023-07-07T06:06:22.488Z,17.30
2023-07-07T06:08:50.341Z,17.40
2023-07-07T06:11:18.309Z,17.50
2023-07-07T06:13:46.489Z,17.60
2023-07-07T06:16:14.427Z,17.90
2023-07-07T06:18:43.666Z,18.20
2023-07-07T06:21:11.691Z,18.50
2023-07-07T06:23:39.639Z,18.80
2023-07-07T06:26:07.415Z,19.10
2023-07-07T06:28:35.179Z,19.20
2023-07-07T06:31:03.616Z,19.30
2023-07-07T06:33:31.935Z,19.40
2023-07-07T06:36:01.162Z,19.50
2023-07-07T06:38:29.247Z,19.70
2023-07-07T06:40:57.383Z,19.80
2023-07-07T06:43:25.786Z,19.90
2023-07-07T06:45:57.823Z,19.80
2023-07-07T06:48:25.662Z,19.70
2023-07-07T06:50:53.457Z,19.70
2023-07-07T06:53:22.616Z,19.60
2023-07-07T06:55:50.452Z,19.50
2023-07-07T06:58:18.501Z,19.50
2023-07-07T07:00:46.377Z,19.40
2023-07-07T07:03:14.570Z,19.40
2023-07-07T07:05:42.914Z,19.40
2023-07-07T07:08:10.847Z,19.40
2023-07-07T07:10:40.119Z,19.40
2023-07-07T07:13:10.437Z,19.50
2023-07-07T07:15:38.221Z,19.60
2023-07-07T07:18:06.094Z,19.60
2023-07-07T07:20:34.035Z,19.60
2023-07-07T07:23:01.858Z,19.70
2023-07-07T07:25:30.084Z,19.80
2023-07-07T07:27:59.679Z,19.80
2023-07-07T07:30:27.542Z,19.80
2023-07-07T07:32:55.326Z,19.90
2023-07-07T07:35:23.387Z,20.00
2023-07-07T07:37:51.176Z,20.00
2023-07-07T07:40:19.193Z,20.00
2023-07-07T07:42:47.006Z,20.10
2023-07-07T07:45:19.656Z,20.20
2023-07-07T07:47:48.481Z,20.30
2023-07-07T07:50:17.701Z,20.30
2023-07-07T07:52:46.159Z,20.30
2023-07-07T07:55:15.255Z,20.40
2023-07-07T07:57:43.287Z,20.40
2023-07-07T08:00:12.510Z,20.50
2023-07-07T08:02:42.234Z,20.50
2023-07-07T08:05:11.328Z,20.60
2023-07-07T08:07:39.554Z,20.60
2023-07-07T08:10:08.976Z,20.70
2023-07-07T08:12:36.862Z,20.70
2023-07-07T08:15:05.533Z,20.80
2023-07-07T08:17:34.154Z,20.90
2023-07-07T08:20:03.851Z,20.90
2023-07-07T08:22:32.031Z,21.00
2023-07-07T08:25:00.940Z,21.00
2023-07-07T08:30:00.352Z,21.10
2023-07-07T08:32:28.466Z,21.10
2023-07-07T08:34:56.921Z,21.20
2023-07-07T08:37:27.375Z,21.20
2023-07-07T08:39:56.040Z,21.30
2023-07-07T08:42:28.568Z,21.40
2023-07-07T08:44:58.227Z,21.40
2023-07-07T08:47:50.155Z,21.50
2023-07-07T08:50:31.700Z,21.60
2023-07-07T08:53:13.517Z,21.70
2023-07-07T08:55:51.745Z,21.70
2023-07-07T08:58:29.628Z,21.80
2023-07-07T09:01:08.934Z,21.90
2023-07-07T09:03:50.696Z,21.90
2023-07-07T09:06:30.109Z,22.00
2023-07-07T09:09:10.170Z,22.10
2023-07-07T09:11:49.936Z,22.20
2023-07-07T09:14:18.882Z,22.20
2023-07-07T09:16:50.737Z,22.30
2023-07-07T09:19:25.256Z,22.30
2023-07-07T09:21:57.254Z,22.40
2023-07-07T09:24:31.611Z,22.60
2023-07-07T09:27:06.275Z,22.60
2023-07-07T09:29:34.351Z,22.70
2023-07-07T09:32:04.233Z,22.80
2023-07-07T09:34:34.018Z,22.80
2023-07-07T09:37:10.186Z,22.90
2023-07-07T09:39:51.832Z,23.00
2023-07-07T09:42:41.410Z,23.00
2023-07-07T09:45:27.433Z,23.10
2023-07-07T09:48:04.269Z,23.20
2023-07-07T09:50:39.504Z,23.20
2023-07-07T09:53:23.677Z,23.30
2023-07-07T09:55:56.350Z,23.30
2023-07-07T09:58:29.323Z,23.40
2023-07-07T10:01:00.197Z,23.50
2023-07-07T10:03:31.228Z,23.50
2023-07-07T10:06:02.335Z,23.60
2023-07-07T10:08:30.714Z,23.70
2023-07-07T10:11:43.979Z,23.70
2023-07-07T10:13:59.273Z,23.80
2023-07-07T10:16:38.737Z,23.90
2023-07-07T10:19:09.332Z,23.90
2023-07-07T10:21:37.909Z,24.00
2023-07-07T10:24:06.401Z,24.00
2023-07-07T10:26:35.770Z,24.10
2023-07-07T10:29:05.898Z,24.10
2023-07-07T10:31:34.037Z,24.20
2023-07-07T10:34:04.246Z,24.20
2023-07-07T10:36:34.963Z,24.30
2023-07-07T10:39:02.957Z,24.30
2023-07-07T10:41:31.371Z,24.40
2023-07-07T10:44:00.893Z,24.40
2023-07-07T10:46:28.966Z,24.40
2023-07-07T10:48:59.046Z,24.40
2023-07-07T10:51:38.617Z,24.40
2023-07-07T10:54:15.307Z,24.40
2023-07-07T10:56:48.675Z,24.50
2023-07-07T11:02:24.424Z,24.60
2023-07-07T11:05:29.656Z,24.70
2023-07-07T11:08:04.991Z,24.70
2023-07-07T11:10:50.452Z,24.70
2023-07-07T11:13:26.068Z,24.70
2023-07-07T11:16:02.677Z,24.80
2023-07-07T11:18:51.278Z,24.80
2023-07-07T11:21:29.761Z,24.80
2023-07-07T11:27:16.119Z,25.00
2023-07-07T11:29:55.323Z,25.00
2023-07-07T11:32:30.740Z,25.00
2023-07-07T11:35:18.014Z,25.10
2023-07-07T11:38:03.204Z,25.10
2023-07-07T11:40:49.264Z,25.10
2023-07-07T11:43:38.301Z,25.10
2023-07-07T11:46:22.914Z,25.20
2023-07-07T11:49:01.389Z,25.20
2023-07-07T11:51:42.571Z,25.30
2023-07-07T11:54:38.159Z,25.30
2023-07-07T11:57:26.663Z,25.30
2023-07-07T12:00:18.516Z,25.30
2023-07-07T12:02:49.889Z,25.40
2023-07-07T12:05:27.089Z,25.40
2023-07-07T12:07:58.516Z,25.40
2023-07-07T12:10:31.105Z,25.40
2023-07-07T12:13:06.990Z,25.50
2023-07-07T12:15:41.090Z,25.50
2023-07-07T12:18:14.738Z,25.60
2023-07-07T12:20:50.253Z,25.60
2023-07-07T12:23:22.245Z,25.60
2023-07-07T12:25:50.020Z,25.60
2023-07-07T12:28:17.984Z,25.60
2023-07-07T12:30:51.425Z,25.70
2023-07-07T12:33:19.412Z,25.70
2023-07-07T12:35:54.202Z,25.70
2023-07-07T12:38:28.134Z,25.70
2023-07-07T12:40:58.115Z,25.80
2023-07-07T12:43:30.312Z,25.70
2023-07-07T12:45:59.245Z,25.80
2023-07-07T12:48:29.887Z,25.80
2023-07-07T12:51:03.554Z,25.90
2023-07-07T12:53:34.283Z,25.90
2023-07-07T12:56:04.902Z,26.00
2023-07-07T12:58:44.768Z,26.00
2023-07-07T13:01:30.846Z,26.00
2023-07-07T13:04:10.266Z,26.00
2023-07-07T13:06:41.853Z,26.10
2023-07-07T13:09:22.589Z,26.10
2023-07-07T13:11:52.177Z,26.10
2023-07-07T13:14:45.146Z,26.20
2023-07-07T13:17:17.409Z,26.20
2023-07-07T13:19:51.156Z,26.20
2023-07-07T13:22:25.220Z,26.30
2023-07-07T13:24:58.532Z,26.30
2023-07-07T13:27:29.068Z,26.30
2023-07-07T13:30:03.138Z,26.40
2023-07-07T13:32:33.048Z,26.30
2023-07-07T13:35:04.237Z,26.30
2023-07-07T13:37:34.730Z,26.40
2023-07-07T13:40:02.979Z,26.40
2023-07-07T13:42:34.561Z,26.50
2023-07-07T13:45:06.457Z,26.50
2023-07-07T13:47:42.578Z,26.60
2023-07-07T13:50:15.290Z,26.60
2023-07-07T13:52:48.676Z,26.70
2023-07-07T13:55:17.871Z,26.70
2023-07-07T13:57:47.103Z,26.70
2023-07-07T14:00:22.138Z,26.70
2023-07-07T14:02:50.872Z,26.70
2023-07-07T14:05:21.561Z,26.70
2023-07-07T14:07:51.574Z,26.80
2023-07-07T14:10:32.922Z,26.80
2023-07-07T14:13:00.808Z,26.80
2023-07-07T14:15:39.717Z,26.80
2023-07-07T14:18:12.352Z,26.80
2023-07-07T14:20:44.223Z,26.80
2023-07-07T14:23:17.129Z,26.80
2023-07-07T14:25:49.971Z,26.80
2023-07-07T14:28:21.448Z,26.80
2023-07-07T14:31:02.343Z,26.80
2023-07-07T14:33:33.966Z,26.80
2023-07-07T14:36:03.279Z,26.80
2023-07-07T14:38:34.349Z,26.80
2023-07-07T14:41:12.209Z,26.80
2023-07-07T14:43:42.383Z,26.80
2023-07-07T14:46:13.471Z,26.80
2023-07-07T14:48:49.183Z,26.70
2023-07-07T14:51:20.523Z,26.70
2023-07-07T14:53:54.228Z,26.70
2023-07-07T14:56:30.113Z,26.80
2023-07-07T14:59:00.284Z,26.80
2023-07-07T15:01:30.506Z,26.80
2023-07-07T15:04:00.786Z,26.80
2023-07-07T15:06:34.743Z,26.80
2023-07-07T15:09:07.549Z,26.80
2023-07-07T15:11:40.365Z,26.70
2023-07-07T15:14:11.771Z,26.70
2023-07-07T15:16:39.802Z,26.70
2023-07-07T15:19:15.517Z,26.80
2023-07-07T15:21:43.340Z,26.80
2023-07-07T15:24:12.633Z,26.70
2023-07-07T15:26:41.076Z,26.70
2023-07-07T15:29:17.081Z,26.80
2023-07-07T15:31:45.714Z,26.80
2023-07-07T15:34:13.650Z,26.80
2023-07-07T15:36:41.573Z,26.80
2023-07-07T15:39:14.686Z,26.80
2023-07-07T15:41:43.085Z,26.80
2023-07-07T15:44:10.924Z,26.70
2023-07-07T15:46:47.852Z,26.70
2023-07-07T15:49:18.500Z,26.70
2023-07-07T15:51:47.826Z,26.70
2023-07-07T15:54:17.230Z,26.60
2023-07-07T15:56:46.498Z,26.60
2023-07-07T15:59:17.187Z,26.60
2023-07-07T16:01:46.289Z,26.60
2023-07-07T16:04:14.250Z,26.60
2023-07-07T16:06:42.626Z,26.60
2023-07-07T16:09:14.952Z,26.60
2023-07-07T16:11:45.137Z,26.50
2023-07-07T16:14:13.146Z,26.50
2023-07-07T16:16:44.145Z,26.40
2023-07-07T16:19:12.846Z,26.40
2023-07-07T16:21:41.539Z,26.40
2023-07-07T16:24:09.689Z,26.40
2023-07-07T16:26:39.653Z,26.30
2023-07-07T16:29:13.879Z,26.30
2023-07-07T16:31:42.250Z,26.30
2023-07-07T16:34:11.159Z,26.20
2023-07-07T16:36:39.284Z,26.20
2023-07-07T16:39:12.938Z,26.10
2023-07-07T16:41:41.784Z,26.10
2023-07-07T16:44:24.754Z,26.00
2023-07-07T16:46:53.905Z,26.00
2023-07-07T16:49:22.065Z,26.00
2023-07-07T16:51:50.413Z,26.00
2023-07-07T16:54:18.291Z,25.90
2023-07-07T16:56:48.812Z,25.90
2023-07-07T16:59:18.746Z,25.90
2023-07-07T17:01:48.416Z,25.90
2023-07-07T17:04:20.737Z,25.90
2023-07-07T17:06:48.859Z,25.80
2023-07-07T17:09:19.483Z,25.80
2023-07-07T17:11:47.793Z,25.80
2023-07-07T17:14:15.620Z,25.80
2023-07-07T17:16:46.027Z,25.70
2023-07-07T17:19:21.895Z,25.70
2023-07-07T17:21:50.641Z,25.70
2023-07-07T17:24:19.246Z,25.60
2023-07-07T17:26:52.506Z,25.60
2023-07-07T17:29:20.450Z,25.60
2023-07-07T17:31:49.253Z,25.60
2023-07-07T17:34:20.167Z,25.50
2023-07-07T17:36:48.144Z,25.50
2023-07-07T17:39:17.847Z,25.50
2023-07-07T17:41:47.698Z,25.50
2023-07-07T17:44:15.780Z,25.40
2023-07-07T17:46:47.519Z,25.40
2023-07-07T17:49:21.216Z,25.30
2023-07-07T17:51:52.863Z,25.30
2023-07-07T17:54:22.399Z,25.30
2023-07-07T17:56:50.431Z,25.20
2023-07-07T17:59:21.532Z,25.20
2023-07-07T18:01:50.338Z,25.20
2023-07-07T18:04:19.538Z,25.20
2023-07-07T18:06:51.385Z,25.10
2023-07-07T18:09:19.631Z,25.10
2023-07-07T18:11:49.759Z,25.00
2023-07-07T18:14:19.502Z,25.00
2023-07-07T18:16:59.738Z,25.00
2023-07-07T18:20:14.825Z,25.00
2023-07-07T18:22:31.111Z,25.00
2023-07-07T18:24:59.173Z,24.90
2023-07-07T18:27:28.385Z,24.90
2023-07-07T18:29:56.220Z,24.80
2023-07-07T18:32:26.066Z,24.70
2023-07-07T18:34:54.045Z,24.60
2023-07-07T18:37:21.945Z,24.50
2023-07-07T18:39:51.425Z,24.50
2023-07-07T18:42:20.753Z,24.40
2023-07-07T18:44:50.107Z,24.30
2023-07-07T18:47:18.133Z,24.20
2023-07-07T18:49:47.106Z,24.10
2023-07-07T18:52:15.495Z,24.00
2023-07-07T18:54:44.051Z,24.00
2023-07-07T18:57:13.891Z,23.90
2023-07-07T18:59:42.795Z,23.80
2023-07-07T19:02:19.557Z,23.70
2023-07-07T19:04:47.562Z,23.60
2023-07-07T19:07:17.978Z,23.60
2023-07-07T19:09:50.542Z,23.50
2023-07-07T19:12:20.361Z,23.50
2023-07-07T19:14:48.189Z,23.40
2023-07-07T19:17:17.700Z,23.30
2023-07-07T19:19:45.805Z,23.20
2023-07-07T19:22:14.323Z,23.10
2023-07-07T19:24:42.581Z,23.10
2023-07-07T19:27:15.212Z,23.00
2023-07-07T19:29:44.695Z,23.00
2023-07-07T19:32:19.113Z,22.90
2023-07-07T19:34:47.308Z,22.80
2023-07-07T19:37:15.101Z,22.70
2023-07-07T19:39:45.756Z,22.70
2023-07-07T19:42:14.680Z,22.60
2023-07-07T19:44:44.454Z,22.50
2023-07-07T19:47:17.209Z,22.40
2023-07-07T19:49:46.067Z,22.30
2023-07-07T19:52:17.728Z,22.30
2023-07-07T19:54:46.194Z,22.30
2023-07-07T19:57:22.644Z,22.30
2023-07-07T19:59:51.960Z,22.20
2023-07-07T20:02:26.273Z,22.10
2023-07-07T20:04:57.341Z,22.10
2023-07-07T20:07:25.555Z,22.10
2023-07-07T20:09:54.805Z,22.00
2023-07-07T20:12:25.156Z,22.00
2023-07-07T20:14:54.403Z,22.10
2023-07-07T20:17:22.540Z,22.00
2023-07-07T20:19:52.914Z,22.00
2023-07-07T20:22:20.712Z,22.00
2023-07-07T20:24:50.071Z,21.90
2023-07-07T20:27:18.710Z,21.90
2023-07-07T20:29:48.110Z,21.80
2023-07-07T20:32:18.289Z,21.70
2023-07-07T20:34:48.128Z,21.70
2023-07-07T20:37:16.124Z,21.60
2023-07-07T20:39:44.238Z,21.50
2023-07-07T20:42:16.210Z,21.40
2023-07-07T20:44:44.043Z,21.40
2023-07-07T20:47:13.120Z,21.20
2023-07-07T20:49:43.126Z,21.20
2023-07-07T20:52:13.270Z,21.10
2023-07-07T20:54:41.432Z,21.00
2023-07-07T20:57:19.193Z,21.00
2023-07-07T20:59:48.889Z,20.90
2023-07-07T21:02:16.734Z,20.90
2023-07-07T21:04:47.294Z,20.90
2023-07-07T21:07:15.635Z,20.90
2023-07-07T21:09:47.602Z,20.80
2023-07-07T21:12:16.364Z,20.80
2023-07-07T21:14:44.138Z,20.80
2023-07-07T21:17:16.591Z,20.80
2023-07-07T21:19:46.170Z,20.80
2023-07-07T21:22:16.631Z,20.80
2023-07-07T21:24:44.531Z,20.70
2023-07-07T21:27:12.703Z,20.70
2023-07-07T21:29:44.279Z,20.70
2023-07-07T21:32:13.019Z,20.60
2023-07-07T21:34:41.525Z,20.60
2023-07-07T21:37:14.098Z,20.60
2023-07-07T21:39:47.484Z,20.50
2023-07-07T21:42:17.816Z,20.50
2023-07-07T21:44:46.311Z,20.40
2023-07-07T21:47:16.976Z,20.30
2023-07-07T21:49:46.880Z,20.30
2023-07-07T21:52:17.852Z,20.20
2023-07-07T21:54:46.686Z,20.20
2023-07-07T21:57:32.618Z,20.20
2023-07-07T22:00:00.561Z,20.20
2023-07-07T22:02:28.809Z,20.10
2023-07-07T22:04:57.125Z,20.10
2023-07-07T22:07:26.864Z,20.00
2023-07-07T22:09:54.908Z,20.00
2023-07-07T22:12:22.954Z,20.00
2023-07-07T22:14:50.927Z,20.00
2023-07-07T22:17:20.380Z,19.90
2023-07-07T22:19:48.236Z,19.90
2023-07-07T22:22:18.888Z,19.90
2023-07-07T22:24:48.051Z,19.80
2023-07-07T22:27:16.050Z,19.80
2023-07-07T22:29:44.250Z,19.80
2023-07-07T22:32:15.457Z,19.80
2023-07-07T22:34:44.595Z,19.70
2023-07-07T22:37:13.371Z,19.70
2023-07-07T22:39:41.336Z,19.60
2023-07-07T22:42:15.055Z,19.50
2023-07-07T22:44:44.283Z,19.50
2023-07-07T22:47:12.297Z,19.50
2023-07-07T22:49:40.123Z,19.50
2023-07-07T22:52:12.365Z,19.40
2023-07-07T22:54:41.340Z,19.40
2023-07-07T22:57:13.030Z,19.30
2023-07-07T22:59:44.605Z,19.30
2023-07-07T23:02:13.301Z,19.30
2023-07-07T23:04:41.450Z,19.20
2023-07-07T23:07:13.175Z,19.20
2023-07-07T23:09:48.185Z,19.10
2023-07-07T23:12:18.775Z,19.10
2023-07-07T23:14:51.430Z,19.00
2023-07-07T23:17:22.952Z,19.00
2023-07-07T23:19:57.398Z,19.00
2023-07-07T23:22:28.089Z,18.90
2023-07-07T23:24:59.635Z,18.80
2023-07-07T23:27:30.581Z,18.80
2023-07-07T23:30:03.266Z,18.70
2023-07-07T23:32:34.011Z,18.70
2023-07-07T23:35:05.403Z,18.70
2023-07-07T23:37:34.141Z,18.70
2023-07-07T23:40:02.399Z,18.70
2023-07-07T23:42:32.839Z,18.60
2023-07-07T23:45:04.889Z,18.60
2023-07-07T23:47:33.138Z,18.50
2023-07-07T23:50:01.522Z,18.50
2023-07-07T23:52:30.579Z,18.50
2023-07-07T23:54:58.848Z,18.50
2023-07-07T23:57:26.800Z,18.50
2023-07-07T23:59:54.851Z,18.50
